Terminal Aerodrome Forecast
Issued by NWS New Orleans/Baton Rouge, LA

Home | Current Version | Previous Version | Text Only | Print | Product List | Glossary On
Versions: 1 2 3 4 5 6 7 8 9 10 11 12
000
FTUS44 KLIX 252320
TAFNEW
TAF
KNEW 252320Z 2600/2624 12007KT P6SM VCSH SCT035
     FM260500 09006KT P6SM FEW030 SCT100
     FM260900 09005KT P6SM FEW030 SCT100 PROB30 2615/2619 4SM TSRA
      BKN025CB=

USA.gov is the U.S. government's official web portal to all federal, state and local government web resources and services.